Time;durP1;ratioP1;P1;durP2;ratioP2;P2;SDS_P1;SDS_P2;PMS_P1;PMS_P2;Temp;Humidity;BMP_temperature;BMP_pressure;BME280_temperature;BME280_humidity;BME280_pressure;Samples;Min_cycle;Max_cycle;Signal;HPM_P1;HPM_P2
2022/12/20 00:00:55;;;;;;;13.70;7.88;;;;;;;;;;5005471;28;20049;-61
2022/12/20 00:03:22;;;;;;;14.50;7.50;;;;;;;;;;4997582;28;20045;-62
2022/12/20 00:05:47;;;;;;;12.05;7.47;;;;;;;;;;4987617;28;20068;-62
2022/12/20 00:08:14;;;;;;;14.20;8.43;;;;;;;;;;4998852;28;20537;-61
2022/12/20 00:10:42;;;;;;;17.52;7.53;;;;;;;;;;4999945;28;20394;-63
2022/12/20 00:13:09;;;;;;;14.63;7.53;;;;;;;;;;5008400;28;20042;-62
2022/12/20 00:15:35;;;;;;;10.68;6.63;;;;;;;;;;5003693;28;20046;-63
2022/12/20 00:18:02;;;;;;;12.65;7.20;;;;;;;;;;5004719;28;20456;-65
2022/12/20 00:20:28;;;;;;;12.52;7.07;;;;;;;;;;5004629;28;20054;-66
2022/12/20 00:22:54;;;;;;;11.55;6.50;;;;;;;;;;5001912;28;20100;-65
2022/12/20 00:25:20;;;;;;;10.30;6.50;;;;;;;;;;5005293;28;20034;-64
2022/12/20 00:27:47;;;;;;;10.15;6.13;;;;;;;;;;5002280;28;20075;-62
2022/12/20 00:30:14;;;;;;;12.57;6.70;;;;;;;;;;5000110;28;20041;-61
2022/12/20 00:32:40;;;;;;;10.82;6.60;;;;;;;;;;5005994;28;20440;-63
2022/12/20 00:35:07;;;;;;;7.78;5.53;;;;;;;;;;4984691;28;20073;-64
2022/12/20 00:37:33;;;;;;;7.40;5.18;;;;;;;;;;5006618;28;20050;-63
2022/12/20 00:39:59;;;;;;;11.05;5.43;;;;;;;;;;5000034;28;20056;-62
2022/12/20 00:42:25;;;;;;;9.93;4.68;;;;;;;;;;5003280;28;20413;-62
2022/12/20 00:44:50;;;;;;;8.00;5.20;;;;;;;;;;5005308;28;20511;-62
2022/12/20 00:47:17;;;;;;;12.20;4.45;;;;;;;;;;5007197;28;20539;-62
2022/12/20 00:49:43;;;;;;;6.50;4.75;;;;;;;;;;4999660;28;20046;-63
2022/12/20 00:52:09;;;;;;;8.10;4.72;;;;;;;;;;5002769;28;20046;-63
2022/12/20 00:54:35;;;;;;;6.78;4.75;;;;;;;;;;5005683;28;20086;-64
2022/12/20 00:57:01;;;;;;;7.63;4.90;;;;;;;;;;5007679;28;20100;-65
2022/12/20 00:59:27;;;;;;;7.43;4.55;;;;;;;;;;5002677;28;20046;-61
2022/12/20 01:01:53;;;;;;;6.03;4.65;;;;;;;;;;5003624;28;20050;-67
2022/12/20 01:04:19;;;;;;;7.50;4.78;;;;;;;;;;5002450;28;20729;-64
2022/12/20 01:06:45;;;;;;;6.85;4.38;;;;;;;;;;5003731;28;20054;-60
2022/12/20 01:09:11;;;;;;;6.93;4.50;;;;;;;;;;5001005;28;20045;-59
2022/12/20 01:11:38;;;;;;;6.60;4.60;;;;;;;;;;5006688;28;20050;-62
2022/12/20 01:14:11;;;;;;;8.32;4.88;;;;;;;;;;5004932;28;20119;-62
2022/12/20 01:16:42;;;;;;;8.75;4.70;;;;;;;;;;5000760;28;20073;-61
2022/12/20 01:19:11;;;;;;;7.50;5.18;;;;;;;;;;5005389;28;20053;-60
2022/12/20 01:21:43;;;;;;;9.32;4.70;;;;;;;;;;5005908;28;20053;-65
2022/12/20 01:24:10;;;;;;;6.28;4.55;;;;;;;;;;5001476;28;20431;-62
2022/12/20 01:26:36;;;;;;;10.35;5.25;;;;;;;;;;5007510;28;20089;-61
2022/12/20 01:29:03;;;;;;;8.27;4.75;;;;;;;;;;4992931;28;20042;-65
2022/12/20 01:31:29;;;;;;;7.85;5.00;;;;;;;;;;4995716;28;20046;-64
2022/12/20 01:33:55;;;;;;;9.73;5.20;;;;;;;;;;4999008;28;20576;-61
2022/12/20 01:36:28;;;;;;;7.68;5.05;;;;;;;;;;5000597;28;20696;-64
2022/12/20 01:38:59;;;;;;;9.20;5.53;;;;;;;;;;5002728;28;20053;-61
2022/12/20 01:41:27;;;;;;;8.68;5.30;;;;;;;;;;4993190;28;20058;-67
2022/12/20 01:43:53;;;;;;;10.98;6.20;;;;;;;;;;4996929;28;20440;-60
2022/12/20 01:46:21;;;;;;;9.50;5.75;;;;;;;;;;4983728;28;20050;-62
2022/12/20 01:49:15;;;;;;;7.72;5.60;;;;;;;;;;4997335;28;20054;-62
2022/12/20 01:51:47;;;;;;;10.63;5.32;;;;;;;;;;4999293;28;20524;-58
2022/12/20 01:54:31;;;;;;;8.93;5.75;;;;;;;;;;4990520;28;20069;-60
2022/12/20 01:57:01;;;;;;;8.52;5.47;;;;;;;;;;5000356;28;20072;-60
2022/12/20 01:59:28;;;;;;;9.70;5.25;;;;;;;;;;4997767;28;20049;-61
2022/12/20 02:01:58;;;;;;;11.55;5.63;;;;;;;;;;4997275;28;20038;-60
2022/12/20 02:04:24;;;;;;;9.48;5.68;;;;;;;;;;4997090;28;20047;-60
2022/12/20 02:06:50;;;;;;;9.52;5.65;;;;;;;;;;4993688;28;20046;-61
2022/12/20 02:09:16;;;;;;;10.13;5.22;;;;;;;;;;4989455;28;20069;-60
2022/12/20 02:12:05;;;;;;;8.65;5.30;;;;;;;;;;4989765;28;20695;-60
2022/12/20 02:14:43;;;;;;;11.23;6.28;;;;;;;;;;4995724;28;20096;-60
2022/12/20 02:17:37;;;;;;;9.75;4.88;;;;;;;;;;4998412;28;20038;-63
2022/12/20 02:20:25;;;;;;;7.40;4.70;;;;;;;;;;4994221;28;20054;-60
2022/12/20 02:23:23;;;;;;;9.05;4.82;;;;;;;;;;4998552;28;20053;-60
2022/12/20 02:26:07;;;;;;;7.68;4.85;;;;;;;;;;4937646;28;20098;-62
2022/12/20 02:28:52;;;;;;;5.82;4.53;;;;;;;;;;4938023;29;20062;-61
2022/12/20 02:31:25;;;;;;;7.57;4.75;;;;;;;;;;4936830;28;20039;-60
2022/12/20 02:33:54;;;;;;;7.93;4.80;;;;;;;;;;4935302;29;20059;-60
2022/12/20 02:36:20;;;;;;;7.53;4.30;;;;;;;;;;4932086;29;20557;-61
2022/12/20 02:38:46;;;;;;;7.65;4.90;;;;;;;;;;4934357;29;20439;-62
2022/12/20 02:41:24;;;;;;;9.63;4.50;;;;;;;;;;4934160;29;20058;-64
2022/12/20 02:46:42;;;;;;;5.80;4.47;;;;;;;;;;4935104;29;20143;-61
2022/12/20 02:49:16;;;;;;;8.23;4.60;;;;;;;;;;4931475;28;20147;-62
2022/12/20 02:51:45;;;;;;;6.55;4.53;;;;;;;;;;4935992;29;20067;-61
2022/12/20 02:54:12;;;;;;;7.50;4.13;;;;;;;;;;4934647;29;20123;-60
2022/12/20 02:56:47;;;;;;;11.45;4.50;;;;;;;;;;4941039;28;20171;-60
2022/12/20 02:59:20;;;;;;;10.68;5.28;;;;;;;;;;4934490;28;20079;-63
2022/12/20 03:01:53;;;;;;;6.90;4.68;;;;;;;;;;4981760;28;20049;-62
2022/12/20 03:04:27;;;;;;;7.35;5.18;;;;;;;;;;4979332;28;20050;-62
2022/12/20 03:07:00;;;;;;;10.13;5.10;;;;;;;;;;4994224;28;20050;-63
2022/12/20 03:09:27;;;;;;;10.57;5.85;;;;;;;;;;4996611;28;20321;-60
2022/12/20 03:11:53;;;;;;;12.25;5.38;;;;;;;;;;4992555;28;20058;-62
2022/12/20 03:14:20;;;;;;;11.35;5.40;;;;;;;;;;4996890;28;20053;-61
2022/12/20 03:16:46;;;;;;;7.25;4.80;;;;;;;;;;4996702;28;20049;-62
2022/12/20 03:19:12;;;;;;;11.05;5.82;;;;;;;;;;4991187;28;20053;-60
2022/12/20 03:21:38;;;;;;;10.77;5.80;;;;;;;;;;5000550;28;20054;-65
2022/12/20 03:24:04;;;;;;;10.07;5.50;;;;;;;;;;4993582;28;20536;-61
2022/12/20 03:26:30;;;;;;;7.88;5.32;;;;;;;;;;4997126;28;20053;-62
2022/12/20 03:28:56;;;;;;;8.95;5.18;;;;;;;;;;4990344;28;20042;-60
2022/12/20 03:31:22;;;;;;;8.88;5.40;;;;;;;;;;4997093;28;20676;-61
2022/12/20 03:33:48;;;;;;;9.18;4.97;;;;;;;;;;4992839;28;20345;-60
2022/12/20 03:36:14;;;;;;;9.45;4.40;;;;;;;;;;4994181;28;20567;-63
2022/12/20 03:38:40;;;;;;;7.65;4.50;;;;;;;;;;4993960;28;20058;-63
2022/12/20 03:41:06;;;;;;;7.15;4.72;;;;;;;;;;4999746;28;20042;-61
2022/12/20 03:43:32;;;;;;;6.93;4.22;;;;;;;;;;4995790;28;20049;-60
2022/12/20 03:45:58;;;;;;;7.88;4.22;;;;;;;;;;5003423;28;20080;-62
2022/12/20 03:48:24;;;;;;;7.50;4.40;;;;;;;;;;4993807;28;20049;-61
2022/12/20 03:50:50;;;;;;;8.45;4.20;;;;;;;;;;5000493;28;20078;-59
2022/12/20 03:53:16;;;;;;;11.88;4.50;;;;;;;;;;4989899;28;20497;-61
2022/12/20 03:55:41;;;;;;;5.57;4.32;;;;;;;;;;4994163;28;20042;-60
2022/12/20 03:58:08;;;;;;;8.18;3.95;;;;;;;;;;4997411;28;20069;-62
2022/12/20 04:00:34;;;;;;;9.73;4.40;;;;;;;;;;4997035;28;20433;-64
2022/12/20 04:03:00;;;;;;;6.45;4.18;;;;;;;;;;4991287;28;20057;-60
2022/12/20 04:05:25;;;;;;;7.55;4.00;;;;;;;;;;4997430;28;20054;-69
2022/12/20 04:07:52;;;;;;;7.18;4.53;;;;;;;;;;4991286;28;20058;-60
2022/12/20 04:10:17;;;;;;;8.15;4.70;;;;;;;;;;4992107;28;20046;-61
2022/12/20 04:12:43;;;;;;;12.45;4.72;;;;;;;;;;4997092;28;20065;-60
2022/12/20 04:15:09;;;;;;;8.10;4.85;;;;;;;;;;4993447;28;20046;-60
2022/12/20 04:17:35;;;;;;;8.23;5.05;;;;;;;;;;4971573;28;20062;-63
2022/12/20 04:20:17;;;;;;;13.70;5.85;;;;;;;;;;4995468;28;20461;-65
2022/12/20 04:22:48;;;;;;;11.00;5.90;;;;;;;;;;4996902;28;20058;-62
2022/12/20 04:25:16;;;;;;;10.80;6.05;;;;;;;;;;4993961;28;20096;-63
2022/12/20 04:27:42;;;;;;;9.40;5.93;;;;;;;;;;4994900;28;20062;-60
2022/12/20 04:30:09;;;;;;;8.68;5.68;;;;;;;;;;4999491;28;20062;-62
2022/12/20 04:32:35;;;;;;;11.35;5.68;;;;;;;;;;4997351;28;20046;-60
2022/12/20 04:35:01;;;;;;;7.28;4.75;;;;;;;;;;4997983;28;20057;-61
2022/12/20 04:37:27;;;;;;;13.07;5.35;;;;;;;;;;5001671;28;20046;-63
2022/12/20 04:39:54;;;;;;;10.98;5.05;;;;;;;;;;4993622;28;20422;-64
2022/12/20 04:42:20;;;;;;;11.57;5.30;;;;;;;;;;4998970;28;20042;-61
2022/12/20 04:44:46;;;;;;;7.43;5.15;;;;;;;;;;4996726;28;20469;-63
2022/12/20 04:47:12;;;;;;;9.80;5.47;;;;;;;;;;4996618;28;20058;-61
2022/12/20 04:49:37;;;;;;;9.68;4.70;;;;;;;;;;4977846;28;20042;-61
2022/12/20 04:54:49;;;;;;;12.60;6.15;;;;;;;;;;4994509;28;20077;-61
2022/12/20 04:57:15;;;;;;;10.60;5.68;;;;;;;;;;4996555;28;20116;-60
2022/12/20 04:59:41;;;;;;;10.18;5.80;;;;;;;;;;4996700;28;20049;-65
2022/12/20 05:02:07;;;;;;;10.85;5.68;;;;;;;;;;4996089;28;20049;-61
2022/12/20 05:04:32;;;;;;;12.65;6.22;;;;;;;;;;4998178;28;20076;-62
2022/12/20 05:06:58;;;;;;;14.27;6.28;;;;;;;;;;4994583;28;20046;-61
2022/12/20 05:09:24;;;;;;;9.93;5.97;;;;;;;;;;4993029;28;20053;-60
2022/12/20 05:11:50;;;;;;;8.90;6.20;;;;;;;;;;5004032;28;20049;-61
2022/12/20 05:14:16;;;;;;;9.45;5.88;;;;;;;;;;4991737;28;20464;-59
2022/12/20 05:16:42;;;;;;;14.65;5.97;;;;;;;;;;4992877;28;20045;-63
2022/12/20 05:19:08;;;;;;;13.48;5.75;;;;;;;;;;4998820;28;20049;-63
2022/12/20 05:27:03;;;;;;;10.05;5.45;;;;;;;;;;4994554;28;20407;-62
2022/12/20 05:29:29;;;;;;;11.18;5.50;;;;;;;;;;4996879;28;20061;-61
2022/12/20 05:31:55;;;;;;;12.50;5.80;;;;;;;;;;4977924;28;20046;-60
2022/12/20 05:34:21;;;;;;;12.20;6.50;;;;;;;;;;4993979;28;20054;-62
2022/12/20 05:36:47;;;;;;;9.85;5.70;;;;;;;;;;4993519;28;20549;-58
2022/12/20 05:39:13;;;;;;;10.18;6.28;;;;;;;;;;4992553;28;20045;-60
2022/12/20 05:41:39;;;;;;;12.07;5.85;;;;;;;;;;4994471;28;20048;-60
2022/12/20 05:44:06;;;;;;;8.77;5.85;;;;;;;;;;4991993;28;20046;-60
2022/12/20 05:46:32;;;;;;;12.80;6.63;;;;;;;;;;4995126;28;20058;-61
2022/12/20 05:48:58;;;;;;;9.30;5.82;;;;;;;;;;4993459;28;20041;-59
2022/12/20 05:51:24;;;;;;;11.32;6.93;;;;;;;;;;4984252;28;20053;-63
2022/12/20 05:53:50;;;;;;;9.63;6.22;;;;;;;;;;5001696;28;20575;-63
2022/12/20 05:56:16;;;;;;;14.18;6.25;;;;;;;;;;4992785;28;20068;-61
2022/12/20 05:58:43;;;;;;;12.27;6.10;;;;;;;;;;4989399;28;20445;-63
2022/12/20 06:01:09;;;;;;;12.00;6.20;;;;;;;;;;4991546;28;20505;-61
2022/12/20 06:03:36;;;;;;;11.50;5.55;;;;;;;;;;4990218;28;20073;-62
2022/12/20 06:06:03;;;;;;;9.95;5.90;;;;;;;;;;4996236;28;20049;-63
2022/12/20 06:08:29;;;;;;;16.17;6.38;;;;;;;;;;4990501;28;20049;-63
2022/12/20 06:10:55;;;;;;;11.00;5.45;;;;;;;;;;4986673;28;20062;-61
2022/12/20 06:13:21;;;;;;;12.55;5.28;;;;;;;;;;4985508;28;20050;-63
2022/12/20 06:15:47;;;;;;;15.38;6.72;;;;;;;;;;4985948;28;20065;-61
2022/12/20 06:18:13;;;;;;;8.38;5.22;;;;;;;;;;4989691;28;20042;-61
2022/12/20 06:20:39;;;;;;;9.38;5.22;;;;;;;;;;4987932;28;20039;-63
2022/12/20 06:23:06;;;;;;;7.35;4.90;;;;;;;;;;4990977;28;20049;-61
2022/12/20 06:25:32;;;;;;;8.77;4.65;;;;;;;;;;4994443;28;20045;-62
2022/12/20 06:27:58;;;;;;;10.48;4.85;;;;;;;;;;4976964;28;20464;-62
2022/12/20 06:30:24;;;;;;;11.15;5.13;;;;;;;;;;4992258;28;20054;-66
2022/12/20 06:32:50;;;;;;;8.18;4.53;;;;;;;;;;4986567;28;20057;-62
2022/12/20 06:35:16;;;;;;;6.63;4.80;;;;;;;;;;4989013;28;20049;-61
2022/12/20 06:37:42;;;;;;;10.75;4.40;;;;;;;;;;4994007;28;20045;-65
2022/12/20 06:40:10;;;;;;;8.85;4.45;;;;;;;;;;5002661;28;20045;-66
2022/12/20 06:42:36;;;;;;;8.43;4.97;;;;;;;;;;4997002;28;20049;-62
2022/12/20 06:45:03;;;;;;;8.02;5.13;;;;;;;;;;4993421;28;20058;-63
2022/12/20 06:47:29;;;;;;;11.15;5.50;;;;;;;;;;4992796;28;21158;-62
2022/12/20 06:49:55;;;;;;;16.58;5.68;;;;;;;;;;4993168;28;20046;-64
2022/12/20 06:52:22;;;;;;;13.48;5.43;;;;;;;;;;4990557;28;20046;-63
2022/12/20 06:54:48;;;;;;;11.15;5.57;;;;;;;;;;4992946;28;20054;-64
2022/12/20 06:57:14;;;;;;;15.57;5.20;;;;;;;;;;4995596;28;20061;-61
2022/12/20 06:59:40;;;;;;;12.75;5.47;;;;;;;;;;5004161;28;20092;-67
2022/12/20 07:02:08;;;;;;;14.05;6.03;;;;;;;;;;4998648;28;20049;-62
2022/12/20 07:04:34;;;;;;;11.45;5.95;;;;;;;;;;4996307;28;20045;-62
2022/12/20 07:06:59;;;;;;;12.38;5.03;;;;;;;;;;5005079;28;20576;-61
2022/12/20 07:09:26;;;;;;;12.73;5.60;;;;;;;;;;5001705;28;20054;-67
2022/12/20 07:11:51;;;;;;;12.98;5.60;;;;;;;;;;5001892;28;20073;-61
2022/12/20 07:14:17;;;;;;;9.93;5.38;;;;;;;;;;5000102;28;20054;-67
2022/12/20 07:16:43;;;;;;;15.68;6.25;;;;;;;;;;4994397;28;20062;-59
2022/12/20 07:19:11;;;;;;;12.68;5.43;;;;;;;;;;4993836;28;20221;-62
2022/12/20 07:21:37;;;;;;;10.65;5.78;;;;;;;;;;4999191;28;20050;-62
2022/12/20 07:24:03;;;;;;;10.10;5.00;;;;;;;;;;4994682;28;20714;-61
2022/12/20 07:26:29;;;;;;;7.95;4.90;;;;;;;;;;4993768;28;20509;-61
2022/12/20 07:28:55;;;;;;;12.80;6.13;;;;;;;;;;4997336;28;20406;-64
2022/12/20 07:31:21;;;;;;;8.95;4.95;;;;;;;;;;4994390;28;20064;-64
2022/12/20 07:33:47;;;;;;;13.38;4.93;;;;;;;;;;4987616;28;20064;-63
2022/12/20 07:36:16;;;;;;;12.93;5.45;;;;;;;;;;4997424;28;20038;-63
2022/12/20 07:38:43;;;;;;;8.43;5.38;;;;;;;;;;4999160;28;20054;-60
2022/12/20 07:41:13;;;;;;;7.80;5.10;;;;;;;;;;4979771;28;20419;-61
2022/12/20 07:43:40;;;;;;;9.13;4.60;;;;;;;;;;4995065;28;20097;-63
2022/12/20 07:46:07;;;;;;;13.63;5.40;;;;;;;;;;4998221;28;20050;-58
2022/12/20 07:48:35;;;;;;;13.90;4.95;;;;;;;;;;5000342;28;20046;-60
2022/12/20 07:51:06;;;;;;;12.48;5.25;;;;;;;;;;4995322;28;20054;-59
2022/12/20 07:53:34;;;;;;;10.35;5.55;;;;;;;;;;5001636;28;20161;-60
2022/12/20 07:56:01;;;;;;;13.27;6.10;;;;;;;;;;5005097;28;20164;-60
2022/12/20 07:58:29;;;;;;;13.38;5.38;;;;;;;;;;4995800;28;20049;-57
2022/12/20 08:00:56;;;;;;;12.43;7.07;;;;;;;;;;5002202;28;20054;-61
2022/12/20 08:03:31;;;;;;;14.48;8.05;;;;;;;;;;5000189;28;20417;-61
2022/12/20 08:06:02;;;;;;;16.75;9.65;;;;;;;;;;5001045;28;20635;-57
2022/12/20 08:08:31;;;;;;;21.45;10.82;;;;;;;;;;4998589;28;20045;-64
2022/12/20 08:10:58;;;;;;;23.75;10.32;;;;;;;;;;4998575;28;20499;-61
2022/12/20 08:13:24;;;;;;;21.27;10.60;;;;;;;;;;4999770;28;20041;-62
2022/12/20 08:15:50;;;;;;;23.83;11.15;;;;;;;;;;4986244;28;20174;-60
2022/12/20 08:18:16;;;;;;;25.73;14.18;;;;;;;;;;5004802;28;20068;-60
2022/12/20 08:20:42;;;;;;;33.40;16.58;;;;;;;;;;5010919;28;20125;-60
2022/12/20 08:23:08;;;;;;;36.80;19.38;;;;;;;;;;5003911;28;20110;-62
2022/12/20 08:25:34;;;;;;;41.78;19.52;;;;;;;;;;4987641;28;20038;-60
2022/12/20 08:28:01;;;;;;;41.78;20.13;;;;;;;;;;5004852;28;20652;-61
2022/12/20 08:30:27;;;;;;;45.53;21.40;;;;;;;;;;4996179;28;20537;-60
2022/12/20 08:32:55;;;;;;;49.10;21.58;;;;;;;;;;4997182;28;20064;-63
2022/12/20 08:35:21;;;;;;;42.22;20.88;;;;;;;;;;5000642;28;20054;-58
2022/12/20 08:37:49;;;;;;;48.38;21.08;;;;;;;;;;4998148;28;20050;-59
2022/12/20 08:40:15;;;;;;;48.47;21.55;;;;;;;;;;4995171;28;20068;-61
2022/12/20 08:42:42;;;;;;;50.55;23.05;;;;;;;;;;5000435;28;20050;-57
2022/12/20 08:45:08;;;;;;;60.22;26.33;;;;;;;;;;4998512;28;20053;-60
2022/12/20 08:47:34;;;;;;;57.95;25.52;;;;;;;;;;4996137;28;20420;-58
2022/12/20 08:50:00;;;;;;;53.25;25.48;;;;;;;;;;4993896;28;20041;-59
2022/12/20 08:52:27;;;;;;;67.93;26.90;;;;;;;;;;5000206;28;20046;-62
2022/12/20 08:54:53;;;;;;;54.90;24.30;;;;;;;;;;4997774;28;20045;-59
2022/12/20 08:57:19;;;;;;;57.28;25.10;;;;;;;;;;5001308;28;20497;-58
2022/12/20 08:59:45;;;;;;;54.33;25.77;;;;;;;;;;5004832;28;20415;-62
2022/12/20 09:02:11;;;;;;;50.38;23.55;;;;;;;;;;5007988;28;20832;-61
2022/12/20 09:04:37;;;;;;;42.22;21.17;;;;;;;;;;5006129;28;20140;-62
2022/12/20 09:07:03;;;;;;;40.22;18.73;;;;;;;;;;4992238;28;20061;-56
2022/12/20 09:09:30;;;;;;;22.92;10.80;;;;;;;;;;4994386;28;20201;-59
2022/12/20 09:11:56;;;;;;;19.52;9.90;;;;;;;;;;5006506;28;20046;-57
2022/12/20 09:14:22;;;;;;;19.90;8.85;;;;;;;;;;5002862;28;20046;-58
2022/12/20 09:16:48;;;;;;;15.65;8.23;;;;;;;;;;5005316;28;20042;-59
2022/12/20 09:19:15;;;;;;;19.65;8.55;;;;;;;;;;5001880;28;20060;-59
2022/12/20 09:21:41;;;;;;;16.50;7.40;;;;;;;;;;4995698;28;20077;-61
2022/12/20 09:24:08;;;;;;;11.40;6.90;;;;;;;;;;4996201;28;20523;-59
2022/12/20 09:26:34;;;;;;;14.32;6.85;;;;;;;;;;5006872;28;20050;-60
2022/12/20 09:29:00;;;;;;;16.15;7.35;;;;;;;;;;5008098;28;20161;-66
2022/12/20 09:31:27;;;;;;;15.02;7.10;;;;;;;;;;5007730;28;20053;-58
2022/12/20 09:33:57;;;;;;;13.07;6.95;;;;;;;;;;4999002;28;20064;-65
2022/12/20 09:36:26;;;;;;;15.38;6.88;;;;;;;;;;5009151;28;20456;-59
2022/12/20 09:38:53;;;;;;;13.88;6.95;;;;;;;;;;4999918;28;20413;-58
2022/12/20 09:41:40;;;;;;;16.17;6.80;;;;;;;;;;5006146;28;20054;-59
2022/12/20 09:44:37;;;;;;;12.05;6.45;;;;;;;;;;4984974;28;20046;-59
2022/12/20 09:47:15;;;;;;;11.68;5.68;;;;;;;;;;5005853;28;20065;-61
2022/12/20 09:49:44;;;;;;;9.52;5.75;;;;;;;;;;4995982;28;20042;-59
2022/12/20 09:52:39;;;;;;;13.00;5.38;;;;;;;;;;5004658;28;20054;-62
2022/12/20 09:55:31;;;;;;;8.68;5.32;;;;;;;;;;5000617;28;20061;-57
2022/12/20 09:58:16;;;;;;;9.18;5.72;;;;;;;;;;5005768;28;20432;-61
2022/12/20 10:00:47;;;;;;;11.15;5.40;;;;;;;;;;5001352;28;20046;-60
2022/12/20 10:03:40;;;;;;;10.40;5.38;;;;;;;;;;4996799;28;20053;-65
2022/12/20 10:06:47;;;;;;;10.88;5.60;;;;;;;;;;4999168;28;20136;-59
2022/12/20 10:09:39;;;;;;;12.00;5.13;;;;;;;;;;4999161;28;20077;-62
2022/12/20 10:12:20;;;;;;;14.20;5.32;;;;;;;;;;4986287;28;20138;-62
2022/12/20 10:15:23;;;;;;;9.77;5.93;;;;;;;;;;5001002;28;20080;-58
2022/12/20 10:17:49;;;;;;;13.80;6.13;;;;;;;;;;5004018;28;20050;-60
2022/12/20 10:20:37;;;;;;;9.18;5.43;;;;;;;;;;5001474;28;20052;-59
2022/12/20 10:23:22;;;;;;;9.30;5.40;;;;;;;;;;4994993;28;20042;-62
2022/12/20 10:25:57;;;;;;;7.82;5.43;;;;;;;;;;4995466;28;20047;-57
2022/12/20 10:28:33;;;;;;;9.43;5.72;;;;;;;;;;5003254;28;20563;-60
2022/12/20 10:31:02;;;;;;;11.30;6.03;;;;;;;;;;4994710;28;20501;-58
2022/12/20 10:33:31;;;;;;;11.23;5.60;;;;;;;;;;5004862;28;20053;-64
2022/12/20 10:36:27;;;;;;;7.43;5.22;;;;;;;;;;5006276;28;20522;-63
2022/12/20 10:38:55;;;;;;;9.98;4.95;;;;;;;;;;5003317;28;20753;-58
2022/12/20 10:41:31;;;;;;;10.82;5.72;;;;;;;;;;4996432;28;20053;-60
2022/12/20 10:44:32;;;;;;;9.38;4.78;;;;;;;;;;4993429;28;20616;-60
2022/12/20 10:46:59;;;;;;;9.02;5.20;;;;;;;;;;4942919;28;20047;-61
2022/12/20 10:49:38;;;;;;;8.90;5.38;;;;;;;;;;4921925;28;20052;-59
2022/12/20 10:52:07;;;;;;;10.27;6.50;;;;;;;;;;4939123;28;20052;-59
2022/12/20 10:54:35;;;;;;;11.50;6.50;;;;;;;;;;4937544;29;20053;-59
2022/12/20 10:57:21;;;;;;;14.65;7.22;;;;;;;;;;4934841;28;20511;-61
2022/12/20 10:59:58;;;;;;;12.73;6.82;;;;;;;;;;4931671;29;20078;-61
2022/12/20 11:02:31;;;;;;;12.50;6.97;;;;;;;;;;4933688;28;20055;-60
2022/12/20 11:05:20;;;;;;;14.60;7.17;;;;;;;;;;4931169;28;20134;-60
2022/12/20 11:08:26;;;;;;;15.93;7.95;;;;;;;;;;4931237;28;20073;-59
2022/12/20 11:11:11;;;;;;;15.93;7.88;;;;;;;;;;4917260;28;20055;-62
2022/12/20 11:13:38;;;;;;;16.23;8.55;;;;;;;;;;4929619;28;20755;-60
2022/12/20 11:16:04;;;;;;;16.15;8.35;;;;;;;;;;4937485;28;20051;-61
2022/12/20 11:19:05;;;;;;;16.98;9.43;;;;;;;;;;4931719;28;20463;-59
2022/12/20 11:21:45;;;;;;;17.70;8.63;;;;;;;;;;4980140;28;20060;-58
2022/12/20 11:24:45;;;;;;;17.23;7.75;;;;;;;;;;5002513;28;20050;-62
2022/12/20 11:27:23;;;;;;;18.98;9.02;;;;;;;;;;5000451;28;20077;-60
2022/12/20 11:30:08;;;;;;;18.98;9.07;;;;;;;;;;4999274;28;20045;-63
2022/12/20 11:33:04;;;;;;;25.77;8.85;;;;;;;;;;4998957;28;20066;-61
2022/12/20 11:35:38;;;;;;;20.67;9.02;;;;;;;;;;5002482;28;20053;-60
2022/12/20 11:38:25;;;;;;;18.33;9.52;;;;;;;;;;4996412;28;20153;-63
2022/12/20 11:40:56;;;;;;;16.60;8.43;;;;;;;;;;4979914;28;20123;-60
2022/12/20 11:43:34;;;;;;;20.48;8.93;;;;;;;;;;5005980;28;20046;-60
2022/12/20 11:46:15;;;;;;;16.00;8.02;;;;;;;;;;4997958;28;20060;-61
2022/12/20 11:48:56;;;;;;;13.90;8.23;;;;;;;;;;4999507;28;20062;-60
2022/12/20 11:51:29;;;;;;;13.35;8.45;;;;;;;;;;4998106;28;20050;-62
2022/12/20 11:54:13;;;;;;;16.73;9.15;;;;;;;;;;4998143;28;20050;-61
2022/12/20 11:56:43;;;;;;;19.48;8.18;;;;;;;;;;4997734;28;20062;-67
2022/12/20 11:59:50;;;;;;;15.65;9.30;;;;;;;;;;5002341;28;20053;-60
2022/12/20 12:02:32;;;;;;;18.92;8.77;;;;;;;;;;4961570;28;20058;-64
2022/12/20 12:05:03;;;;;;;17.48;7.90;;;;;;;;;;4998778;28;20042;-60
2022/12/20 12:07:38;;;;;;;14.88;8.68;;;;;;;;;;5001146;28;20046;-62
2022/12/20 12:10:24;;;;;;;19.33;8.50;;;;;;;;;;4999237;28;20081;-61
2022/12/20 12:13:16;;;;;;;20.17;8.07;;;;;;;;;;5002608;28;20124;-62
2022/12/20 12:16:02;;;;;;;20.30;7.90;;;;;;;;;;5002844;28;20118;-59
2022/12/20 12:18:31;;;;;;;18.33;9.10;;;;;;;;;;4992890;28;20042;-59
2022/12/20 12:21:21;;;;;;;23.48;8.52;;;;;;;;;;5006343;28;20119;-58
2022/12/20 12:23:47;;;;;;;22.75;7.43;;;;;;;;;;4996616;28;20053;-60
2022/12/20 12:26:35;;;;;;;15.80;7.82;;;;;;;;;;4994975;28;20038;-60
2022/12/20 12:29:08;;;;;;;12.88;7.38;;;;;;;;;;4998645;28;20049;-63
2022/12/20 12:31:46;;;;;;;20.77;7.65;;;;;;;;;;5000641;28;20052;-61
2022/12/20 12:34:24;;;;;;;15.10;6.95;;;;;;;;;;4999923;28;20428;-60
2022/12/20 12:37:29;;;;;;;16.10;6.90;;;;;;;;;;5002998;28;20053;-61
2022/12/20 12:40:23;;;;;;;14.65;6.60;;;;;;;;;;4956930;28;20050;-63
2022/12/20 12:43:04;;;;;;;17.80;7.07;;;;;;;;;;4997162;28;20054;-58
2022/12/20 12:45:45;;;;;;;23.58;7.43;;;;;;;;;;5000724;28;20052;-60
2022/12/20 12:48:23;;;;;;;16.98;8.60;;;;;;;;;;5004575;28;20104;-62
2022/12/20 12:50:53;;;;;;;21.20;8.93;;;;;;;;;;4999320;28;20056;-69
2022/12/20 12:53:33;;;;;;;22.35;8.88;;;;;;;;;;4999942;28;20046;-59
2022/12/20 12:56:25;;;;;;;18.98;8.85;;;;;;;;;;4998527;28;20057;-61
2022/12/20 12:59:05;;;;;;;23.27;9.48;;;;;;;;;;4997474;28;20057;-61
2022/12/20 13:02:10;;;;;;;14.30;7.38;;;;;;;;;;5002469;28;20046;-62
2022/12/20 13:04:56;;;;;;;16.38;7.70;;;;;;;;;;5000465;28;20053;-60
2022/12/20 13:07:34;;;;;;;14.05;7.82;;;;;;;;;;4997422;28;20731;-60
2022/12/20 13:10:09;;;;;;;15.95;6.43;;;;;;;;;;5002428;28;20038;-62
2022/12/20 13:12:35;;;;;;;11.13;6.47;;;;;;;;;;4996187;28;20107;-61
2022/12/20 13:15:25;;;;;;;12.75;5.78;;;;;;;;;;5000633;28;20045;-63
2022/12/20 13:17:53;;;;;;;15.43;5.57;;;;;;;;;;4933985;28;20062;-58
2022/12/20 13:20:24;;;;;;;14.43;6.00;;;;;;;;;;4936882;28;20043;-63
2022/12/20 13:23:11;;;;;;;13.75;6.03;;;;;;;;;;4934071;28;20104;-59
2022/12/20 13:25:46;;;;;;;15.85;7.38;;;;;;;;;;4940132;28;20077;-59
2022/12/20 13:28:18;;;;;;;24.23;10.50;;;;;;;;;;4943724;28;20487;-64
2022/12/20 13:30:46;;;;;;;21.67;8.70;;;;;;;;;;4940115;28;20062;-61
2022/12/20 13:33:22;;;;;;;25.17;10.63;;;;;;;;;;4950864;28;20070;-61
2022/12/20 13:35:54;;;;;;;10.45;5.47;;;;;;;;;;4958955;28;20058;-59
2022/12/20 13:38:44;;;;;;;10.95;5.05;;;;;;;;;;4959341;28;20054;-60
2022/12/20 13:41:21;;;;;;;13.48;5.03;;;;;;;;;;4963625;28;20117;-60
2022/12/20 13:43:50;;;;;;;15.43;5.85;;;;;;;;;;4955120;28;20050;-60
2022/12/20 13:46:31;;;;;;;10.60;5.45;;;;;;;;;;4960934;28;20054;-64
2022/12/20 13:49:04;;;;;;;10.45;6.03;;;;;;;;;;4957799;28;20150;-58
2022/12/20 13:51:30;;;;;;;13.82;7.40;;;;;;;;;;4960137;28;20053;-59
2022/12/20 13:54:02;;;;;;;14.77;5.95;;;;;;;;;;4959779;28;20150;-59
2022/12/20 13:56:50;;;;;;;12.82;6.38;;;;;;;;;;5001066;28;20054;-60
2022/12/20 13:59:30;;;;;;;12.85;6.57;;;;;;;;;;4998658;28;20053;-59
2022/12/20 14:01:59;;;;;;;10.05;6.13;;;;;;;;;;4994199;28;20058;-59
2022/12/20 14:04:37;;;;;;;11.38;6.95;;;;;;;;;;4998211;28;20485;-61
2022/12/20 14:07:04;;;;;;;12.15;7.00;;;;;;;;;;4999286;28;20062;-63
2022/12/20 14:09:33;;;;;;;13.45;7.72;;;;;;;;;;4986313;28;20191;-60
2022/12/20 14:12:11;;;;;;;13.43;5.78;;;;;;;;;;5002115;28;20686;-60
2022/12/20 14:14:42;;;;;;;11.00;5.53;;;;;;;;;;5002386;28;20450;-63
2022/12/20 14:17:34;;;;;;;13.05;4.80;;;;;;;;;;4999697;28;20103;-60
2022/12/20 14:20:15;;;;;;;11.00;3.63;;;;;;;;;;4984456;28;20164;-60
2022/12/20 14:23:00;;;;;;;8.70;2.40;;;;;;;;;;4969488;28;20042;-63
2022/12/20 14:25:45;;;;;;;8.77;2.60;;;;;;;;;;4998313;28;20160;-61
2022/12/20 14:28:29;;;;;;;11.73;2.83;;;;;;;;;;4999310;28;20046;-61
2022/12/20 14:30:58;;;;;;;12.10;2.40;;;;;;;;;;4984769;28;20050;-61
2022/12/20 14:33:33;;;;;;;11.45;2.60;;;;;;;;;;4986076;28;20145;-60
2022/12/20 14:36:15;;;;;;;8.00;2.22;;;;;;;;;;4992004;28;20049;-60
2022/12/20 14:38:46;;;;;;;11.15;2.00;;;;;;;;;;4993606;28;20053;-61
2022/12/20 14:41:31;;;;;;;7.35;1.92;;;;;;;;;;4997767;28;20054;-61
2022/12/20 14:44:02;;;;;;;13.93;2.00;;;;;;;;;;4996150;28;20112;-60
2022/12/20 14:46:29;;;;;;;12.00;1.70;;;;;;;;;;4996867;28;20682;-61
2022/12/20 14:49:26;;;;;;;9.68;2.38;;;;;;;;;;5002107;28;20049;-61
2022/12/20 14:52:05;;;;;;;15.70;2.40;;;;;;;;;;4992125;28;20568;-65
2022/12/20 14:54:32;;;;;;;15.13;1.85;;;;;;;;;;4995477;28;20049;-59
2022/12/20 14:56:59;;;;;;;11.13;2.05;;;;;;;;;;5003540;28;20050;-60
2022/12/20 14:59:28;;;;;;;11.30;2.05;;;;;;;;;;4995700;28;20132;-61
2022/12/20 15:01:54;;;;;;;10.63;1.75;;;;;;;;;;4994194;28;20119;-65
2022/12/20 15:04:31;;;;;;;10.07;1.80;;;;;;;;;;5001652;28;20497;-56
2022/12/20 15:06:58;;;;;;;21.50;2.40;;;;;;;;;;4997617;28;20050;-61
2022/12/20 15:09:24;;;;;;;11.77;1.95;;;;;;;;;;4997076;28;20058;-65
2022/12/20 15:11:50;;;;;;;11.38;1.98;;;;;;;;;;5000783;28;20250;-60